createdAt,value
2023-05-15T00:00:38.802Z,0.00
2023-05-15T00:01:39.350Z,0.00
2023-05-15T00:02:38.990Z,0.00
2023-05-15T00:03:39.713Z,0.00
2023-05-15T00:04:39.234Z,0.00
2023-05-15T00:05:38.638Z,0.00
2023-05-15T00:06:39.252Z,0.00
2023-05-15T00:07:38.917Z,0.00
2023-05-15T00:08:39.441Z,0.00
2023-05-15T00:09:38.584Z,0.00
2023-05-15T00:10:40.917Z,0.00
2023-05-15T00:11:38.940Z,0.00
2023-05-15T00:12:40.532Z,0.00
2023-05-15T00:13:39.215Z,0.00
2023-05-15T00:14:40.107Z,0.00
2023-05-15T00:15:39.228Z,0.00
2023-05-15T00:16:39.443Z,0.00
2023-05-15T00:17:40.120Z,0.00
2023-05-15T00:18:38.551Z,0.00
2023-05-15T00:19:38.720Z,0.00
2023-05-15T00:20:39.648Z,0.00
2023-05-15T00:21:39.016Z,0.00
2023-05-15T00:22:39.291Z,0.00
2023-05-15T00:23:39.194Z,0.00
2023-05-15T00:24:39.177Z,0.00
2023-05-15T00:25:38.520Z,0.00
2023-05-15T00:26:39.744Z,0.00
2023-05-15T00:27:38.269Z,0.00
2023-05-15T00:28:39.256Z,0.00
2023-05-15T00:29:38.285Z,0.00
2023-05-15T00:30:38.798Z,0.00
2023-05-15T00:31:38.882Z,0.00
2023-05-15T00:32:38.896Z,0.00
2023-05-15T00:33:39.267Z,0.00
2023-05-15T00:34:38.463Z,0.00
2023-05-15T00:35:38.982Z,0.00
2023-05-15T00:36:38.398Z,0.00
2023-05-15T00:37:38.645Z,0.00
2023-05-15T00:38:39.174Z,0.00
2023-05-15T00:39:38.606Z,0.00
2023-05-15T00:40:38.247Z,0.00
2023-05-15T00:41:39.504Z,0.00
2023-05-15T00:42:38.138Z,0.00
2023-05-15T00:43:38.891Z,0.00
2023-05-15T00:44:39.104Z,0.00
2023-05-15T00:45:38.019Z,0.00
2023-05-15T00:46:38.579Z,0.00
2023-05-15T00:47:40.043Z,0.00
2023-05-15T00:48:38.260Z,0.00
2023-05-15T00:49:38.020Z,0.00
2023-05-15T00:50:37.985Z,0.00
2023-05-15T00:51:38.015Z,0.00
2023-05-15T00:52:37.987Z,0.00
2023-05-15T00:53:37.970Z,0.00
2023-05-15T00:54:37.976Z,0.00
2023-05-15T00:55:37.965Z,0.00
2023-05-15T00:56:37.980Z,0.00
2023-05-15T00:57:37.915Z,0.00
2023-05-15T00:58:37.993Z,0.00
2023-05-15T00:59:37.911Z,0.00
2023-05-15T01:00:38.948Z,0.00
2023-05-15T01:01:37.934Z,0.00
2023-05-15T01:02:37.926Z,0.00
2023-05-15T01:03:37.980Z,0.00
2023-05-15T01:04:37.827Z,0.00
2023-05-15T01:05:37.826Z,0.00
2023-05-15T01:06:38.858Z,0.00
2023-05-15T01:07:37.858Z,0.00
2023-05-15T01:08:38.790Z,0.00
2023-05-15T01:09:37.780Z,0.00
2023-05-15T01:10:37.779Z,0.00
2023-05-15T01:11:37.775Z,0.00
2023-05-15T01:12:37.737Z,0.00
2023-05-15T01:13:37.773Z,0.00
2023-05-15T01:14:37.745Z,0.00
2023-05-15T01:15:37.732Z,0.00
2023-05-15T01:16:37.721Z,0.00
2023-05-15T01:17:37.734Z,0.00
2023-05-15T01:18:37.846Z,0.00
2023-05-15T01:19:37.774Z,0.00
2023-05-15T01:20:37.698Z,0.00
2023-05-15T01:21:37.688Z,0.00
2023-05-15T01:22:37.631Z,0.00
2023-05-15T01:23:37.670Z,0.00
2023-05-15T01:24:37.634Z,0.00
2023-05-15T01:25:37.642Z,0.00
2023-05-15T01:26:37.623Z,0.00
2023-05-15T01:27:37.613Z,0.00
2023-05-15T01:28:37.573Z,0.00
2023-05-15T01:29:37.575Z,0.00
2023-05-15T01:30:37.591Z,0.00
2023-05-15T01:31:37.555Z,0.00
2023-05-15T01:32:37.573Z,0.00
2023-05-15T01:33:37.503Z,0.00
2023-05-15T01:34:37.487Z,0.00
2023-05-15T01:35:37.535Z,0.00
2023-05-15T01:36:37.518Z,0.00
2023-05-15T01:37:37.471Z,0.00
2023-05-15T01:38:37.522Z,0.00
2023-05-15T01:39:37.588Z,0.00
2023-05-15T01:40:37.530Z,0.00
2023-05-15T01:41:37.437Z,0.00
2023-05-15T01:42:37.415Z,0.00
2023-05-15T01:43:37.413Z,0.00
2023-05-15T01:44:37.376Z,0.00
2023-05-15T01:45:37.393Z,0.00
2023-05-15T01:46:37.691Z,0.00
2023-05-15T01:47:37.382Z,0.00
2023-05-15T01:48:37.380Z,0.00
2023-05-15T01:49:37.353Z,0.00
2023-05-15T01:50:37.348Z,0.00
2023-05-15T01:51:37.315Z,0.00
2023-05-15T01:52:37.321Z,0.00
2023-05-15T01:53:37.295Z,0.00
2023-05-15T01:54:37.264Z,0.00
2023-05-15T01:55:37.246Z,0.00
2023-05-15T01:56:37.319Z,0.00
2023-05-15T01:57:37.266Z,0.00
2023-05-15T01:58:37.260Z,0.00
2023-05-15T01:59:37.232Z,0.00
2023-05-15T02:00:37.316Z,0.00
2023-05-15T02:01:37.242Z,0.00
2023-05-15T02:02:37.292Z,0.00
2023-05-15T02:03:37.306Z,0.00
2023-05-15T02:04:37.212Z,0.00
2023-05-15T02:05:37.195Z,0.00
2023-05-15T02:06:37.146Z,0.00
2023-05-15T02:07:37.108Z,0.00
2023-05-15T02:08:37.114Z,0.00
2023-05-15T02:09:37.174Z,0.00
2023-05-15T02:10:37.103Z,0.00
2023-05-15T02:11:37.060Z,0.00
2023-05-15T02:12:37.061Z,0.00
2023-05-15T02:13:37.099Z,0.00
2023-05-15T02:14:37.068Z,0.00
2023-05-15T02:15:37.052Z,0.00
2023-05-15T02:16:37.135Z,0.00
2023-05-15T02:17:37.034Z,0.00
2023-05-15T02:18:37.073Z,0.00
2023-05-15T02:19:37.022Z,0.00
2023-05-15T02:20:37.012Z,0.00
2023-05-15T02:21:37.008Z,0.00
2023-05-15T02:22:37.025Z,0.00
2023-05-15T02:23:36.960Z,0.00
2023-05-15T02:24:36.927Z,0.00
2023-05-15T02:25:37.836Z,0.00
2023-05-15T02:26:36.903Z,0.00
2023-05-15T02:27:36.996Z,0.00
2023-05-15T02:28:36.890Z,0.00
2023-05-15T02:29:36.916Z,0.00
2023-05-15T02:30:36.873Z,0.00
2023-05-15T02:31:36.974Z,0.00
2023-05-15T02:32:36.853Z,0.00
2023-05-15T02:33:36.838Z,0.00
2023-05-15T02:34:36.844Z,0.00
2023-05-15T02:35:36.821Z,0.00
2023-05-15T02:36:36.795Z,0.00
2023-05-15T02:37:36.815Z,0.00
2023-05-15T02:38:36.748Z,0.00
2023-05-15T02:39:36.754Z,0.00
2023-05-15T02:40:36.744Z,0.00
2023-05-15T02:41:36.766Z,0.00
2023-05-15T02:42:36.760Z,0.00
2023-05-15T02:43:36.709Z,0.00
2023-05-15T02:44:36.736Z,0.00
2023-05-15T02:45:36.753Z,0.00
2023-05-15T02:46:36.674Z,0.00
2023-05-15T02:47:36.679Z,0.00
2023-05-15T02:48:36.640Z,0.00
2023-05-15T02:49:37.239Z,0.00
2023-05-15T02:50:36.599Z,0.00
2023-05-15T02:51:36.594Z,0.00
2023-05-15T02:52:36.682Z,0.00
2023-05-15T02:53:36.577Z,0.00
2023-05-15T02:54:36.609Z,0.00
2023-05-15T02:55:36.601Z,0.00
2023-05-15T02:56:36.595Z,0.00
2023-05-15T02:57:36.588Z,0.00
2023-05-15T02:58:36.554Z,0.00
2023-05-15T02:59:36.613Z,0.00
2023-05-15T03:00:36.518Z,0.00
2023-05-15T03:01:36.511Z,0.00
2023-05-15T03:02:36.544Z,0.00
2023-05-15T03:03:36.805Z,0.00
2023-05-15T03:04:36.547Z,0.00
2023-05-15T03:05:36.459Z,0.00
2023-05-15T03:06:36.435Z,0.00
2023-05-15T03:07:37.268Z,0.00
2023-05-15T03:08:36.484Z,0.00
2023-05-15T03:09:36.432Z,0.00
2023-05-15T03:10:36.437Z,0.00
2023-05-15T03:11:36.391Z,0.00
2023-05-15T03:12:36.358Z,0.00
2023-05-15T03:13:36.349Z,0.00
2023-05-15T03:14:36.366Z,0.00
2023-05-15T03:15:36.313Z,0.00
2023-05-15T03:16:36.389Z,0.00
2023-05-15T03:17:36.461Z,0.00
2023-05-15T03:18:37.148Z,0.00
2023-05-15T03:19:36.281Z,0.00
2023-05-15T03:20:36.282Z,0.00
2023-05-15T03:21:36.297Z,0.00
2023-05-15T03:22:36.280Z,0.00
2023-05-15T03:23:37.869Z,0.00
2023-05-15T03:24:37.217Z,0.00
2023-05-15T03:25:36.202Z,0.00
2023-05-15T03:26:36.274Z,5.62
2023-05-15T03:27:36.218Z,5.62
2023-05-15T03:28:36.196Z,5.62
2023-05-15T03:29:36.181Z,5.62
2023-05-15T03:30:36.205Z,5.62
2023-05-15T03:31:36.245Z,5.62
2023-05-15T03:32:37.329Z,5.62
2023-05-15T03:33:36.351Z,5.62
2023-05-15T03:34:36.199Z,5.62
2023-05-15T03:35:36.254Z,5.62
2023-05-15T03:36:36.203Z,11.25
2023-05-15T03:37:36.186Z,11.25
2023-05-15T03:38:37.061Z,11.25
2023-05-15T03:39:36.202Z,11.25
2023-05-15T03:40:36.259Z,11.25
2023-05-15T03:41:36.381Z,11.25
2023-05-15T03:42:36.232Z,11.25
2023-05-15T03:43:36.241Z,11.25
2023-05-15T03:44:36.088Z,16.88
2023-05-15T03:45:37.214Z,16.88
2023-05-15T03:46:36.204Z,16.88
2023-05-15T03:47:36.077Z,16.88
2023-05-15T03:48:37.217Z,16.88
2023-05-15T03:49:36.008Z,22.50
2023-05-15T03:50:36.251Z,22.50
2023-05-15T03:51:36.945Z,22.50
2023-05-15T03:52:35.912Z,22.50
2023-05-15T03:53:35.933Z,22.50
2023-05-15T03:54:35.876Z,28.12
2023-05-15T03:55:35.881Z,28.12
2023-05-15T03:56:35.956Z,28.12
2023-05-15T03:57:35.855Z,28.12
2023-05-15T03:58:35.851Z,33.75
2023-05-15T03:59:35.864Z,33.75
2023-05-15T04:00:35.830Z,33.75
2023-05-15T04:01:46.685Z,33.75
2023-05-15T04:02:37.871Z,39.38
2023-05-15T04:03:35.865Z,39.38
2023-05-15T04:04:35.749Z,39.38
2023-05-15T04:05:35.865Z,39.38
2023-05-15T04:06:35.832Z,45.00
2023-05-15T04:07:35.756Z,45.00
2023-05-15T04:08:35.799Z,45.00
2023-05-15T04:09:35.764Z,50.62
2023-05-15T04:10:35.697Z,50.62
2023-05-15T04:11:35.722Z,50.62
2023-05-15T04:12:35.748Z,56.25
2023-05-15T04:13:35.752Z,56.25
2023-05-15T04:14:36.295Z,61.88
2023-05-15T04:15:35.710Z,61.88
2023-05-15T04:16:35.805Z,67.50
2023-05-15T04:17:35.785Z,67.50
2023-05-15T04:18:35.707Z,67.50
2023-05-15T04:19:35.793Z,67.50
2023-05-15T04:20:35.690Z,73.12
2023-05-15T04:21:35.630Z,78.75
2023-05-15T04:22:35.564Z,84.38
2023-05-15T04:23:35.710Z,84.38
2023-05-15T04:24:35.633Z,90.00
2023-05-15T04:25:35.659Z,95.62
2023-05-15T04:26:35.730Z,95.62
2023-05-15T04:27:35.630Z,101.25
2023-05-15T04:28:35.622Z,106.88
2023-05-15T04:29:35.592Z,112.50
2023-05-15T04:30:35.606Z,112.50
2023-05-15T04:31:35.605Z,118.12
2023-05-15T04:32:35.611Z,123.75
2023-05-15T04:33:35.473Z,123.75
2023-05-15T04:34:35.485Z,129.38
2023-05-15T04:35:35.577Z,135.00
2023-05-15T04:36:35.481Z,146.25
2023-05-15T04:37:35.544Z,146.25
2023-05-15T04:38:35.391Z,151.88
2023-05-15T04:39:37.093Z,157.50
2023-05-15T04:40:35.553Z,168.75
2023-05-15T04:41:35.493Z,174.38
2023-05-15T04:42:35.441Z,185.62
2023-05-15T04:43:35.362Z,191.25
2023-05-15T04:44:35.334Z,202.50
2023-05-15T04:45:35.475Z,208.12
2023-05-15T04:46:35.523Z,225.00
2023-05-15T04:47:35.892Z,236.25
2023-05-15T04:48:35.411Z,253.12
2023-05-15T04:49:35.386Z,264.38
2023-05-15T04:50:35.416Z,275.62
2023-05-15T04:51:35.373Z,286.88
2023-05-15T04:52:35.366Z,292.50
2023-05-15T04:53:35.322Z,309.38
2023-05-15T04:54:35.254Z,326.25
2023-05-15T04:55:35.250Z,337.50
2023-05-15T04:56:35.268Z,348.75
2023-05-15T04:57:35.599Z,354.38
2023-05-15T04:58:36.230Z,365.62
2023-05-15T04:59:35.332Z,382.50
2023-05-15T05:00:35.245Z,388.12
2023-05-15T05:01:35.838Z,399.38
2023-05-15T05:02:35.414Z,410.62
2023-05-15T05:03:35.216Z,410.62
2023-05-15T05:04:35.814Z,416.25
2023-05-15T05:05:35.236Z,421.88
2023-05-15T05:06:35.116Z,427.50
2023-05-15T05:07:35.145Z,427.50
2023-05-15T05:08:35.130Z,399.38
2023-05-15T05:09:36.132Z,433.12
2023-05-15T05:10:35.095Z,438.75
2023-05-15T05:11:35.073Z,444.38
2023-05-15T05:12:35.082Z,455.62
2023-05-15T05:13:35.105Z,455.62
2023-05-15T05:14:35.003Z,455.62
2023-05-15T05:15:34.983Z,455.62
2023-05-15T05:16:35.135Z,461.25
2023-05-15T05:17:35.082Z,466.88
2023-05-15T05:18:35.183Z,472.50
2023-05-15T05:19:34.977Z,478.12
2023-05-15T05:20:35.135Z,483.75
2023-05-15T05:21:40.559Z,495.00
2023-05-15T05:22:35.013Z,500.62
2023-05-15T05:23:34.965Z,506.25
2023-05-15T05:24:35.152Z,624.38
2023-05-15T05:25:34.938Z,832.50
2023-05-15T05:26:34.930Z,950.62
2023-05-15T05:27:34.853Z,1018.12
2023-05-15T05:28:34.975Z,1040.62
2023-05-15T05:29:34.935Z,1046.25
2023-05-15T05:30:34.915Z,1057.50
2023-05-15T05:31:35.880Z,990.00
2023-05-15T05:32:34.887Z,1012.50
2023-05-15T05:33:34.872Z,1091.25
2023-05-15T05:34:35.006Z,1175.62
2023-05-15T05:35:34.848Z,1158.75
2023-05-15T05:36:34.758Z,1063.12
2023-05-15T05:37:34.930Z,1164.38
2023-05-15T05:38:34.799Z,1209.38
2023-05-15T05:39:34.810Z,1215.00
2023-05-15T05:40:34.800Z,1181.25
2023-05-15T05:41:34.800Z,1181.25
2023-05-15T05:42:34.735Z,1203.75
2023-05-15T05:43:34.680Z,1248.75
2023-05-15T05:44:34.854Z,1209.38
2023-05-15T05:45:34.749Z,1170.00
2023-05-15T05:46:34.749Z,1198.12
2023-05-15T05:47:34.762Z,1254.38
2023-05-15T05:48:34.871Z,1305.00
2023-05-15T05:49:34.657Z,1198.12
2023-05-15T05:50:34.699Z,1012.50
2023-05-15T05:51:34.744Z,843.75
2023-05-15T05:52:34.645Z,534.38
2023-05-15T05:53:34.661Z,641.25
2023-05-15T05:54:34.621Z,568.12
2023-05-15T05:55:34.626Z,573.75
2023-05-15T05:56:34.602Z,601.88
2023-05-15T05:57:34.602Z,579.38
2023-05-15T05:58:34.557Z,585.00
2023-05-15T05:59:35.186Z,585.00
2023-05-15T06:00:34.530Z,618.75
2023-05-15T06:01:34.761Z,641.25
2023-05-15T06:02:34.662Z,652.50
2023-05-15T06:03:34.777Z,691.88
2023-05-15T06:04:34.841Z,613.12
2023-05-15T06:05:34.505Z,635.62
2023-05-15T06:06:34.558Z,939.38
2023-05-15T06:07:34.466Z,1209.38
2023-05-15T06:08:34.549Z,928.12
2023-05-15T06:09:34.507Z,781.88
2023-05-15T06:10:34.430Z,832.50
2023-05-15T06:11:34.491Z,781.88
2023-05-15T06:12:34.489Z,742.50
2023-05-15T06:13:34.343Z,720.00
2023-05-15T06:14:34.475Z,714.38
2023-05-15T06:15:34.388Z,725.62
2023-05-15T06:16:34.391Z,742.50
2023-05-15T06:17:34.370Z,765.00
2023-05-15T06:18:34.452Z,742.50
2023-05-15T06:19:34.390Z,725.62
2023-05-15T06:20:34.347Z,703.12
2023-05-15T06:21:34.324Z,714.38
2023-05-15T06:22:34.728Z,776.25
2023-05-15T06:23:34.287Z,759.38
2023-05-15T06:24:34.314Z,736.88
2023-05-15T06:25:34.225Z,714.38
2023-05-15T06:26:34.192Z,686.25
2023-05-15T06:27:34.264Z,686.25
2023-05-15T06:28:34.881Z,663.75
2023-05-15T06:29:34.223Z,658.12
2023-05-15T06:30:34.202Z,641.25
2023-05-15T06:31:34.173Z,641.25
2023-05-15T06:32:34.608Z,646.88
2023-05-15T06:33:35.135Z,658.12
2023-05-15T06:34:34.185Z,663.75
2023-05-15T06:35:34.097Z,686.25
2023-05-15T06:36:34.087Z,725.62
2023-05-15T06:37:34.133Z,731.25
2023-05-15T06:38:34.086Z,753.75
2023-05-15T06:39:34.058Z,776.25
2023-05-15T06:40:34.046Z,916.88
2023-05-15T06:41:34.022Z,871.88
2023-05-15T06:42:34.079Z,928.12
2023-05-15T06:43:34.646Z,990.00
2023-05-15T06:44:34.098Z,950.62
2023-05-15T06:45:34.024Z,905.62
2023-05-15T06:46:34.173Z,956.25
2023-05-15T06:47:34.011Z,950.62
2023-05-15T06:48:34.064Z,1012.50
2023-05-15T06:49:33.958Z,933.75
2023-05-15T06:50:34.047Z,1035.00
2023-05-15T06:51:33.940Z,1260.00
2023-05-15T06:52:33.980Z,1040.62
2023-05-15T06:53:33.915Z,1260.00
2023-05-15T06:54:33.863Z,1440.00
2023-05-15T06:55:33.859Z,1299.38
2023-05-15T06:56:33.844Z,2098.12
2023-05-15T06:57:33.939Z,2115.00
2023-05-15T06:58:33.899Z,2250.00
2023-05-15T06:59:33.828Z,2238.75
2023-05-15T07:00:33.884Z,2362.50
2023-05-15T07:01:33.817Z,2244.38
2023-05-15T07:02:33.792Z,1845.00
2023-05-15T07:03:33.818Z,1586.25
2023-05-15T07:04:33.853Z,1428.75
2023-05-15T07:05:35.191Z,1524.38
2023-05-15T07:06:33.752Z,1490.62
2023-05-15T07:07:33.745Z,1372.50
2023-05-15T07:08:33.803Z,1355.62
2023-05-15T07:09:33.853Z,1299.38
2023-05-15T07:10:33.704Z,1327.50
2023-05-15T07:11:33.992Z,1260.00
2023-05-15T07:12:33.673Z,1203.75
2023-05-15T07:13:33.703Z,1130.62
2023-05-15T07:14:33.633Z,1203.75
2023-05-15T07:15:33.641Z,984.38
2023-05-15T07:16:33.634Z,933.75
2023-05-15T07:17:33.752Z,900.00
2023-05-15T07:18:33.763Z,877.50
2023-05-15T07:19:33.891Z,871.88
2023-05-15T07:20:35.148Z,894.38
2023-05-15T07:21:33.600Z,922.50
2023-05-15T07:22:38.661Z,973.12
2023-05-15T07:23:34.617Z,1035.00
2023-05-15T07:24:33.602Z,1046.25
2023-05-15T07:25:33.545Z,1108.12
2023-05-15T07:26:40.725Z,1125.00
2023-05-15T07:27:35.560Z,1175.62
2023-05-15T07:28:33.493Z,1158.75
2023-05-15T07:29:33.622Z,1085.62
2023-05-15T07:30:33.484Z,1096.88
2023-05-15T07:31:33.619Z,1051.88
2023-05-15T07:32:33.543Z,1057.50
2023-05-15T07:33:33.458Z,1029.38
2023-05-15T07:34:33.448Z,1096.88
2023-05-15T07:35:34.401Z,1113.75
2023-05-15T07:36:33.406Z,1029.38
2023-05-15T07:37:33.454Z,1029.38
2023-05-15T07:38:33.361Z,1040.62
2023-05-15T07:39:33.607Z,1051.88
2023-05-15T07:40:33.435Z,1063.12
2023-05-15T07:41:33.989Z,1085.62
2023-05-15T07:42:33.459Z,1080.00
2023-05-15T07:43:33.398Z,1080.00
2023-05-15T07:44:33.348Z,1119.38
2023-05-15T07:45:33.347Z,1119.38
2023-05-15T07:46:33.374Z,1158.75
2023-05-15T07:47:33.362Z,1220.62
2023-05-15T07:48:33.317Z,1282.50
2023-05-15T07:49:33.296Z,1316.25
2023-05-15T07:50:33.252Z,1440.00
2023-05-15T07:51:33.261Z,1372.50
2023-05-15T07:52:33.213Z,1389.38
2023-05-15T07:53:33.267Z,1569.38
2023-05-15T07:54:34.165Z,1507.50
2023-05-15T07:55:33.205Z,1456.88
2023-05-15T07:56:33.317Z,1468.12
2023-05-15T07:57:33.118Z,1395.00
2023-05-15T07:58:33.157Z,1333.12
2023-05-15T07:59:33.268Z,1293.75
2023-05-15T08:00:33.177Z,1310.62
2023-05-15T08:01:33.230Z,1321.88
2023-05-15T08:02:33.309Z,1400.62
2023-05-15T08:03:33.317Z,1423.12
2023-05-15T08:04:33.237Z,1445.62
2023-05-15T08:05:33.093Z,1501.88
2023-05-15T08:06:33.109Z,1580.62
2023-05-15T08:07:34.177Z,1681.88
2023-05-15T08:08:33.114Z,1636.88
2023-05-15T08:09:33.029Z,1552.50
2023-05-15T08:10:33.059Z,1648.12
2023-05-15T08:11:33.017Z,1591.88
2023-05-15T08:12:33.014Z,1861.88
2023-05-15T08:15:24.267Z,1563.75
2023-05-15T08:16:25.100Z,1507.50
2023-05-15T08:17:25.121Z,1558.12
2023-05-15T08:18:25.139Z,1462.50
2023-05-15T08:19:25.067Z,1383.75
2023-05-15T08:20:25.037Z,1434.38
2023-05-15T08:21:24.966Z,1597.50
2023-05-15T08:22:25.014Z,1575.00
2023-05-15T08:23:25.034Z,1541.25
2023-05-15T08:24:24.956Z,1580.62
2023-05-15T08:25:25.256Z,1546.88
2023-05-15T08:26:24.975Z,1530.00
2023-05-15T08:27:24.990Z,1451.25
2023-05-15T08:28:24.978Z,1456.88
2023-05-15T08:29:24.941Z,1558.12
2023-05-15T08:30:24.906Z,1681.88
2023-05-15T08:31:25.034Z,1687.50
2023-05-15T08:32:24.948Z,2025.00
2023-05-15T08:33:24.868Z,1569.38
2023-05-15T08:34:24.866Z,1518.75
2023-05-15T08:35:25.155Z,1518.75
2023-05-15T08:36:24.878Z,1569.38
2023-05-15T08:37:24.845Z,1816.88
2023-05-15T08:38:24.812Z,1721.25
2023-05-15T08:39:24.774Z,1991.25
2023-05-15T08:40:38.475Z,1575.00
2023-05-15T08:41:39.198Z,1603.12
2023-05-15T08:42:26.777Z,1603.12
2023-05-15T08:43:24.761Z,1794.38
2023-05-15T08:44:24.727Z,1552.50
2023-05-15T08:45:24.994Z,1440.00
2023-05-15T08:46:24.771Z,1372.50
2023-05-15T08:47:25.744Z,1378.12
2023-05-15T08:48:24.774Z,1440.00
2023-05-15T08:49:24.707Z,1395.00
2023-05-15T08:50:24.814Z,1440.00
2023-05-15T08:51:24.691Z,1749.38
2023-05-15T08:52:24.709Z,2514.38
2023-05-15T08:53:24.664Z,2244.38
2023-05-15T08:54:24.660Z,2469.38
2023-05-15T08:55:24.986Z,2767.50
2023-05-15T08:56:24.604Z,2818.12
2023-05-15T08:57:24.630Z,3105.00
2023-05-15T08:58:24.598Z,3110.62
2023-05-15T08:59:25.144Z,3065.62
2023-05-15T09:00:24.558Z,3015.00
2023-05-15T09:01:24.570Z,2919.38
2023-05-15T09:02:24.625Z,3015.00
2023-05-15T09:03:24.688Z,3037.50
2023-05-15T09:04:24.518Z,2992.50
2023-05-15T09:05:24.744Z,2992.50
2023-05-15T09:06:24.504Z,2913.75
2023-05-15T09:07:24.525Z,2823.75
2023-05-15T09:08:24.470Z,2835.00
2023-05-15T09:09:24.468Z,2806.88
2023-05-15T09:10:24.459Z,2896.88
2023-05-15T09:11:24.473Z,2930.62
2023-05-15T09:12:24.608Z,2863.12
2023-05-15T09:13:24.433Z,2992.50
2023-05-15T09:14:24.458Z,3121.88
2023-05-15T09:15:24.582Z,3020.62
2023-05-15T09:16:24.525Z,2823.75
2023-05-15T09:17:24.422Z,2750.62
2023-05-15T09:18:24.411Z,1704.38
2023-05-15T09:19:24.390Z,2120.62
2023-05-15T09:20:24.364Z,2683.12
2023-05-15T09:21:24.391Z,2896.88
2023-05-15T09:22:24.385Z,2947.50
2023-05-15T09:23:24.312Z,2908.12
2023-05-15T09:24:24.296Z,3026.25
2023-05-15T09:25:24.532Z,3043.12
2023-05-15T09:26:24.276Z,2975.62
2023-05-15T09:27:24.284Z,2902.50
2023-05-15T09:28:24.283Z,2846.25
2023-05-15T09:29:24.267Z,2986.88
2023-05-15T09:30:24.243Z,1344.38
2023-05-15T09:31:24.285Z,1338.75
2023-05-15T09:32:24.272Z,1496.25
2023-05-15T09:33:24.260Z,1080.00
2023-05-15T09:34:24.267Z,1012.50
2023-05-15T09:35:25.300Z,922.50
2023-05-15T09:36:24.239Z,883.12
2023-05-15T09:37:25.083Z,855.00
2023-05-15T09:38:24.197Z,860.62
2023-05-15T09:39:24.156Z,826.88
2023-05-15T09:40:24.193Z,804.38
2023-05-15T09:41:24.277Z,793.12
2023-05-15T09:42:24.158Z,787.50
2023-05-15T09:43:24.119Z,793.12
2023-05-15T09:44:24.091Z,832.50
2023-05-15T09:45:24.369Z,956.25
2023-05-15T09:46:24.232Z,1333.12
2023-05-15T09:47:24.229Z,2683.12
2023-05-15T09:48:24.613Z,2812.50
2023-05-15T09:49:24.105Z,2992.50
2023-05-15T09:50:24.030Z,3043.12
2023-05-15T09:51:25.104Z,1558.12
2023-05-15T09:52:24.041Z,2975.62
2023-05-15T09:53:24.603Z,3048.75
2023-05-15T09:54:24.023Z,1130.62
2023-05-15T09:55:24.135Z,1068.75
2023-05-15T09:56:23.981Z,939.38
2023-05-15T09:57:24.002Z,877.50
2023-05-15T09:58:23.944Z,883.12
2023-05-15T09:59:24.014Z,798.75
2023-05-15T10:00:24.432Z,759.38
2023-05-15T10:01:23.966Z,742.50
2023-05-15T10:02:23.899Z,742.50
2023-05-15T10:03:23.912Z,753.75
2023-05-15T10:04:23.960Z,765.00
2023-05-15T10:05:35.363Z,776.25
2023-05-15T10:06:25.924Z,815.62
2023-05-15T10:07:23.846Z,843.75
2023-05-15T10:08:23.891Z,2070.00
2023-05-15T10:09:23.879Z,1051.88
2023-05-15T10:10:23.960Z,1850.62
2023-05-15T10:11:23.836Z,781.88
2023-05-15T10:12:23.795Z,680.62
2023-05-15T10:13:23.891Z,635.62
2023-05-15T10:14:23.818Z,613.12
2023-05-15T10:15:23.796Z,618.75
2023-05-15T10:16:23.810Z,618.75
2023-05-15T10:17:23.757Z,618.75
2023-05-15T10:18:23.746Z,607.50
2023-05-15T10:19:23.959Z,590.62
2023-05-15T10:20:23.853Z,579.38
2023-05-15T10:21:23.699Z,579.38
2023-05-15T10:22:23.692Z,585.00
2023-05-15T10:23:23.694Z,590.62
2023-05-15T10:24:23.678Z,601.88
2023-05-15T10:25:23.705Z,613.12
2023-05-15T10:26:24.643Z,630.00
2023-05-15T10:27:23.652Z,663.75
2023-05-15T10:28:23.690Z,675.00
2023-05-15T10:29:23.635Z,680.62
2023-05-15T10:30:23.902Z,669.38
2023-05-15T10:31:23.652Z,652.50
2023-05-15T10:32:23.599Z,635.62
2023-05-15T10:33:23.589Z,618.75
2023-05-15T10:34:23.540Z,596.25
2023-05-15T10:35:23.559Z,573.75
2023-05-15T10:36:23.601Z,545.62
2023-05-15T10:37:23.530Z,523.12
2023-05-15T10:38:23.536Z,506.25
2023-05-15T10:39:23.531Z,489.38
2023-05-15T10:40:23.723Z,461.25
2023-05-15T10:41:23.484Z,444.38
2023-05-15T10:42:23.460Z,427.50
2023-05-15T10:43:24.571Z,410.62
2023-05-15T10:44:23.492Z,399.38
2023-05-15T10:45:23.452Z,399.38
2023-05-15T10:46:23.467Z,399.38
2023-05-15T10:47:23.523Z,410.62
2023-05-15T10:48:23.565Z,427.50
2023-05-15T10:49:23.706Z,444.38
2023-05-15T10:50:23.547Z,472.50
2023-05-15T10:51:23.416Z,500.62
2023-05-15T10:52:23.380Z,523.12
2023-05-15T10:53:23.418Z,545.62
2023-05-15T10:54:23.340Z,556.88
2023-05-15T10:55:23.364Z,568.12
2023-05-15T10:56:23.398Z,573.75
2023-05-15T10:57:23.293Z,579.38
2023-05-15T10:58:23.314Z,585.00
2023-05-15T10:59:23.562Z,585.00
2023-05-15T11:00:23.571Z,590.62
2023-05-15T11:01:23.457Z,596.25
2023-05-15T11:02:23.282Z,607.50
2023-05-15T11:03:23.316Z,618.75
2023-05-15T11:04:23.342Z,635.62
2023-05-15T11:05:23.619Z,658.12
2023-05-15T11:06:23.216Z,675.00
2023-05-15T11:07:23.244Z,703.12
2023-05-15T11:08:23.199Z,731.25
2023-05-15T11:09:23.847Z,765.00
2023-05-15T11:10:23.254Z,815.62
2023-05-15T11:11:24.131Z,911.25
2023-05-15T11:12:23.137Z,967.50
2023-05-15T11:13:23.720Z,1119.38
2023-05-15T11:14:23.107Z,1305.00
2023-05-15T11:15:23.130Z,1816.88
2023-05-15T11:16:23.156Z,1631.25
2023-05-15T11:17:23.084Z,1130.62
2023-05-15T11:18:23.136Z,1766.25
2023-05-15T11:19:23.097Z,1473.75
2023-05-15T11:20:23.108Z,1681.88
2023-05-15T11:21:23.083Z,1327.50
2023-05-15T11:22:23.059Z,1209.38
2023-05-15T11:23:23.037Z,1383.75
2023-05-15T11:24:23.034Z,1175.62
2023-05-15T11:25:23.036Z,2199.38
2023-05-15T11:26:22.961Z,939.38
2023-05-15T11:27:22.976Z,838.12
2023-05-15T11:28:23.008Z,776.25
2023-05-15T11:29:22.943Z,680.62
2023-05-15T11:30:23.091Z,624.38
2023-05-15T11:31:22.962Z,579.38
2023-05-15T11:32:22.968Z,551.25
2023-05-15T11:33:22.918Z,551.25
2023-05-15T11:34:22.890Z,556.88
2023-05-15T11:35:22.925Z,551.25
2023-05-15T11:36:22.877Z,551.25
2023-05-15T11:37:22.883Z,568.12
2023-05-15T11:38:22.911Z,630.00
2023-05-15T11:39:22.841Z,1001.25
2023-05-15T11:40:22.828Z,725.62
2023-05-15T11:41:22.808Z,708.75
2023-05-15T11:42:22.777Z,731.25
2023-05-15T11:43:22.819Z,776.25
2023-05-15T11:44:22.918Z,815.62
2023-05-15T11:45:22.777Z,939.38
2023-05-15T11:46:22.836Z,888.75
2023-05-15T11:47:22.732Z,1153.12
2023-05-15T11:48:22.846Z,1063.12
2023-05-15T11:49:22.789Z,905.62
2023-05-15T11:50:23.030Z,939.38
2023-05-15T11:51:22.750Z,950.62
2023-05-15T11:52:22.686Z,1991.25
2023-05-15T11:53:22.705Z,1428.75
2023-05-15T11:54:22.757Z,1805.62
2023-05-15T11:55:22.682Z,1721.25
2023-05-15T11:56:22.725Z,1091.25
2023-05-15T11:57:22.671Z,911.25
2023-05-15T11:58:22.749Z,855.00
2023-05-15T11:59:22.648Z,838.12
2023-05-15T12:00:22.808Z,838.12
2023-05-15T12:01:22.593Z,832.50
2023-05-15T12:02:22.621Z,793.12
2023-05-15T12:03:24.027Z,759.38
2023-05-15T12:04:22.738Z,731.25
2023-05-15T12:05:22.587Z,714.38
2023-05-15T12:06:22.542Z,697.50
2023-05-15T12:07:22.559Z,680.62
2023-05-15T12:08:22.730Z,652.50
2023-05-15T12:09:22.584Z,624.38
2023-05-15T12:10:22.579Z,607.50
2023-05-15T12:11:22.525Z,596.25
2023-05-15T12:12:22.499Z,585.00
2023-05-15T12:13:22.494Z,573.75
2023-05-15T12:14:22.564Z,568.12
2023-05-15T12:15:22.468Z,562.50
2023-05-15T12:16:22.538Z,556.88
2023-05-15T12:17:22.492Z,551.25
2023-05-15T12:18:22.475Z,545.62
2023-05-15T12:19:22.460Z,540.00
2023-05-15T12:20:22.453Z,540.00
2023-05-15T12:21:22.395Z,540.00
2023-05-15T12:22:22.414Z,545.62
2023-05-15T12:23:22.340Z,551.25
2023-05-15T12:24:22.417Z,556.88
2023-05-15T12:25:22.340Z,562.50
2023-05-15T12:26:22.343Z,568.12
2023-05-15T12:27:22.325Z,573.75
2023-05-15T12:28:22.416Z,579.38
2023-05-15T12:29:22.318Z,590.62
2023-05-15T12:30:22.501Z,607.50
2023-05-15T12:31:22.342Z,646.88
2023-05-15T12:32:22.259Z,697.50
2023-05-15T12:33:22.277Z,736.88
2023-05-15T12:34:22.259Z,759.38
2023-05-15T12:35:22.232Z,770.62
2023-05-15T12:36:22.262Z,765.00
2023-05-15T12:37:22.208Z,765.00
2023-05-15T12:38:22.214Z,815.62